Berryville, Arkansas
Current Conditions -  °F | °C
As of 7:45 AM on Sunday 25 Jan 2015 (Local Time) from KBBG Reporting Station
Overcast Overcast  
Wind Chill: 40°   Ceiling: 4000
Heat Index: 45°   Visibility: 10mi
Dew Point: 37°   Wind: 9mph
Humidity: 76%   Direction: 280°W
Pressure: 29.7"   Gusts: NA
Location:  36.36°N, 93.57°W
Report Text: KBBG 251345Z 28008KT 10SM OVC040 07/03 A2970
Loading
Personal Weather Stations






























Interactive Weather Map New forecast layout! Learn more

10-Day Weather Forecast

Advertisements
Track Severe Weather on mobile